sensor_id;sensor_type;location;lat;lon;timestamp;P1;durP1;ratioP1;P2;durP2;ratioP2
16685;SDS011;8456;51.136;4.210;2022-09-09T00:00:17;5.53;;;3.20;;
16685;SDS011;8456;51.136;4.210;2022-09-09T00:02:50;7.40;;;3.03;;
16685;SDS011;8456;51.136;4.210;2022-09-09T00:08:34;10.23;;;3.37;;
16685;SDS011;8456;51.136;4.210;2022-09-09T00:11:05;11.93;;;3.47;;
16685;SDS011;8456;51.136;4.210;2022-09-09T00:13:37;10.73;;;3.10;;
16685;SDS011;8456;51.136;4.210;2022-09-09T00:16:19;7.53;;;3.10;;
16685;SDS011;8456;51.136;4.210;2022-09-09T00:21:33;6.80;;;3.67;;
16685;SDS011;8456;51.136;4.210;2022-09-09T00:24:01;6.87;;;3.70;;
16685;SDS011;8456;51.136;4.210;2022-09-09T00:26:51;7.73;;;3.20;;
16685;SDS011;8456;51.136;4.210;2022-09-09T00:32:19;7.47;;;3.40;;
16685;SDS011;8456;51.136;4.210;2022-09-09T00:34:56;6.00;;;3.50;;
16685;SDS011;8456;51.136;4.210;2022-09-09T00:37:27;8.83;;;3.10;;
16685;SDS011;8456;51.136;4.210;2022-09-09T00:39:57;6.30;;;3.27;;
16685;SDS011;8456;51.136;4.210;2022-09-09T00:42:43;9.30;;;3.03;;
16685;SDS011;8456;51.136;4.210;2022-09-09T00:48:18;9.77;;;3.50;;
16685;SDS011;8456;51.136;4.210;2022-09-09T00:50:53;8.57;;;2.90;;
16685;SDS011;8456;51.136;4.210;2022-09-09T00:53:38;5.63;;;3.03;;
16685;SDS011;8456;51.136;4.210;2022-09-09T00:56:14;10.70;;;3.33;;
16685;SDS011;8456;51.136;4.210;2022-09-09T00:59:12;7.37;;;3.07;;
16685;SDS011;8456;51.136;4.210;2022-09-09T01:01:49;7.17;;;2.77;;
16685;SDS011;8456;51.136;4.210;2022-09-09T01:04:18;8.67;;;2.80;;
16685;SDS011;8456;51.136;4.210;2022-09-09T01:06:52;8.00;;;3.13;;
16685;SDS011;8456;51.136;4.210;2022-09-09T01:09:39;6.53;;;2.80;;
16685;SDS011;8456;51.136;4.210;2022-09-09T01:15:21;11.50;;;3.27;;
16685;SDS011;8456;51.136;4.210;2022-09-09T01:20:37;6.53;;;2.63;;
16685;SDS011;8456;51.136;4.210;2022-09-09T01:23:34;5.47;;;2.53;;
16685;SDS011;8456;51.136;4.210;2022-09-09T01:26:37;9.50;;;2.80;;
16685;SDS011;8456;51.136;4.210;2022-09-09T01:29:14;6.43;;;2.60;;
16685;SDS011;8456;51.136;4.210;2022-09-09T01:31:51;10.07;;;3.10;;
16685;SDS011;8456;51.136;4.210;2022-09-09T01:34:20;9.77;;;2.67;;
16685;SDS011;8456;51.136;4.210;2022-09-09T01:36:49;7.57;;;2.60;;
16685;SDS011;8456;51.136;4.210;2022-09-09T01:39:18;5.23;;;2.80;;
16685;SDS011;8456;51.136;4.210;2022-09-09T01:41:48;7.10;;;2.87;;
16685;SDS011;8456;51.136;4.210;2022-09-09T01:44:16;6.80;;;2.80;;
16685;SDS011;8456;51.136;4.210;2022-09-09T01:46:44;8.17;;;3.53;;
16685;SDS011;8456;51.136;4.210;2022-09-09T01:49:16;9.63;;;3.93;;
16685;SDS011;8456;51.136;4.210;2022-09-09T01:51:42;7.10;;;3.10;;
16685;SDS011;8456;51.136;4.210;2022-09-09T01:54:13;9.10;;;3.30;;
16685;SDS011;8456;51.136;4.210;2022-09-09T02:02:25;9.83;;;3.97;;
16685;SDS011;8456;51.136;4.210;2022-09-09T02:05:17;10.27;;;3.97;;
16685;SDS011;8456;51.136;4.210;2022-09-09T02:07:51;8.00;;;4.13;;
16685;SDS011;8456;51.136;4.210;2022-09-09T02:10:58;6.50;;;4.23;;
16685;SDS011;8456;51.136;4.210;2022-09-09T02:14:13;14.27;;;4.93;;
16685;SDS011;8456;51.136;4.210;2022-09-09T02:16:55;13.07;;;5.07;;
16685;SDS011;8456;51.136;4.210;2022-09-09T02:19:47;13.03;;;4.83;;
16685;SDS011;8456;51.136;4.210;2022-09-09T02:22:29;11.13;;;4.80;;
16685;SDS011;8456;51.136;4.210;2022-09-09T02:24:59;15.90;;;5.83;;
16685;SDS011;8456;51.136;4.210;2022-09-09T02:27:28;11.37;;;5.03;;
16685;SDS011;8456;51.136;4.210;2022-09-09T02:29:54;13.03;;;5.00;;
16685;SDS011;8456;51.136;4.210;2022-09-09T02:32:35;16.47;;;5.33;;
16685;SDS011;8456;51.136;4.210;2022-09-09T02:35:08;13.27;;;5.10;;
16685;SDS011;8456;51.136;4.210;2022-09-09T02:37:38;11.13;;;4.77;;
16685;SDS011;8456;51.136;4.210;2022-09-09T02:40:06;11.27;;;4.77;;
16685;SDS011;8456;51.136;4.210;2022-09-09T02:42:40;12.50;;;4.40;;
16685;SDS011;8456;51.136;4.210;2022-09-09T02:45:11;11.83;;;4.90;;
16685;SDS011;8456;51.136;4.210;2022-09-09T02:47:45;13.20;;;4.30;;
16685;SDS011;8456;51.136;4.210;2022-09-09T02:50:37;16.30;;;4.80;;
16685;SDS011;8456;51.136;4.210;2022-09-09T02:53:17;15.70;;;4.43;;
16685;SDS011;8456;51.136;4.210;2022-09-09T02:55:52;13.80;;;4.60;;
16685;SDS011;8456;51.136;4.210;2022-09-09T02:58:22;17.40;;;4.83;;
16685;SDS011;8456;51.136;4.210;2022-09-09T03:01:02;7.97;;;3.70;;
16685;SDS011;8456;51.136;4.210;2022-09-09T03:03:29;8.60;;;3.43;;
16685;SDS011;8456;51.136;4.210;2022-09-09T03:05:56;12.17;;;3.97;;
16685;SDS011;8456;51.136;4.210;2022-09-09T03:08:22;9.10;;;3.77;;
16685;SDS011;8456;51.136;4.210;2022-09-09T03:10:48;11.37;;;4.00;;
16685;SDS011;8456;51.136;4.210;2022-09-09T03:13:15;10.87;;;3.53;;
16685;SDS011;8456;51.136;4.210;2022-09-09T03:15:41;13.30;;;3.40;;
16685;SDS011;8456;51.136;4.210;2022-09-09T03:18:12;9.07;;;3.77;;
16685;SDS011;8456;51.136;4.210;2022-09-09T03:20:38;13.03;;;4.10;;
16685;SDS011;8456;51.136;4.210;2022-09-09T03:23:03;11.70;;;3.73;;
16685;SDS011;8456;51.136;4.210;2022-09-09T03:25:29;12.17;;;3.47;;
16685;SDS011;8456;51.136;4.210;2022-09-09T03:27:55;12.37;;;4.20;;
16685;SDS011;8456;51.136;4.210;2022-09-09T03:30:23;13.97;;;3.50;;
16685;SDS011;8456;51.136;4.210;2022-09-09T03:32:50;12.43;;;3.47;;
16685;SDS011;8456;51.136;4.210;2022-09-09T03:35:17;12.27;;;3.53;;
16685;SDS011;8456;51.136;4.210;2022-09-09T03:37:43;16.97;;;4.07;;
16685;SDS011;8456;51.136;4.210;2022-09-09T03:40:11;15.37;;;3.60;;
16685;SDS011;8456;51.136;4.210;2022-09-09T03:42:38;15.63;;;3.40;;
16685;SDS011;8456;51.136;4.210;2022-09-09T03:45:05;13.57;;;3.67;;
16685;SDS011;8456;51.136;4.210;2022-09-09T03:47:33;13.47;;;3.30;;
16685;SDS011;8456;51.136;4.210;2022-09-09T03:50:04;10.27;;;3.10;;
16685;SDS011;8456;51.136;4.210;2022-09-09T03:52:34;12.97;;;3.33;;
16685;SDS011;8456;51.136;4.210;2022-09-09T03:55:03;14.10;;;3.90;;
16685;SDS011;8456;51.136;4.210;2022-09-09T03:57:29;8.90;;;3.20;;
16685;SDS011;8456;51.136;4.210;2022-09-09T03:59:56;15.00;;;4.13;;
16685;SDS011;8456;51.136;4.210;2022-09-09T04:02:23;13.07;;;2.97;;
16685;SDS011;8456;51.136;4.210;2022-09-09T04:04:49;16.63;;;3.97;;
16685;SDS011;8456;51.136;4.210;2022-09-09T04:07:15;16.27;;;3.63;;
16685;SDS011;8456;51.136;4.210;2022-09-09T04:09:42;11.67;;;3.87;;
16685;SDS011;8456;51.136;4.210;2022-09-09T04:12:08;17.17;;;3.73;;
16685;SDS011;8456;51.136;4.210;2022-09-09T04:14:34;15.77;;;4.97;;
16685;SDS011;8456;51.136;4.210;2022-09-09T04:17:02;10.20;;;3.20;;
16685;SDS011;8456;51.136;4.210;2022-09-09T04:19:31;13.80;;;3.30;;
16685;SDS011;8456;51.136;4.210;2022-09-09T04:21:57;9.53;;;3.33;;
16685;SDS011;8456;51.136;4.210;2022-09-09T04:24:24;14.77;;;3.83;;
16685;SDS011;8456;51.136;4.210;2022-09-09T04:26:53;12.20;;;3.97;;
16685;SDS011;8456;51.136;4.210;2022-09-09T04:29:19;16.60;;;3.07;;
16685;SDS011;8456;51.136;4.210;2022-09-09T04:31:45;14.77;;;3.80;;
16685;SDS011;8456;51.136;4.210;2022-09-09T04:34:12;13.13;;;3.57;;
16685;SDS011;8456;51.136;4.210;2022-09-09T04:36:38;15.83;;;3.57;;
16685;SDS011;8456;51.136;4.210;2022-09-09T04:39:05;14.23;;;3.77;;
16685;SDS011;8456;51.136;4.210;2022-09-09T04:41:31;15.50;;;3.53;;
16685;SDS011;8456;51.136;4.210;2022-09-09T04:43:58;15.23;;;3.60;;
16685;SDS011;8456;51.136;4.210;2022-09-09T04:46:26;16.53;;;5.43;;
16685;SDS011;8456;51.136;4.210;2022-09-09T04:48:52;10.17;;;3.90;;
16685;SDS011;8456;51.136;4.210;2022-09-09T04:51:19;11.33;;;3.97;;
16685;SDS011;8456;51.136;4.210;2022-09-09T04:53:47;9.50;;;2.90;;
16685;SDS011;8456;51.136;4.210;2022-09-09T04:56:15;12.83;;;3.43;;
16685;SDS011;8456;51.136;4.210;2022-09-09T04:58:51;18.83;;;3.57;;
16685;SDS011;8456;51.136;4.210;2022-09-09T05:01:21;13.67;;;3.40;;
16685;SDS011;8456;51.136;4.210;2022-09-09T05:03:49;13.57;;;3.60;;
16685;SDS011;8456;51.136;4.210;2022-09-09T05:06:20;16.40;;;3.70;;
16685;SDS011;8456;51.136;4.210;2022-09-09T05:08:48;12.57;;;3.40;;
16685;SDS011;8456;51.136;4.210;2022-09-09T05:13:51;16.57;;;3.80;;
16685;SDS011;8456;51.136;4.210;2022-09-09T05:16:18;15.23;;;3.70;;
16685;SDS011;8456;51.136;4.210;2022-09-09T05:18:45;16.20;;;3.70;;
16685;SDS011;8456;51.136;4.210;2022-09-09T05:21:12;15.90;;;3.33;;
16685;SDS011;8456;51.136;4.210;2022-09-09T05:23:40;17.37;;;3.57;;
16685;SDS011;8456;51.136;4.210;2022-09-09T05:26:07;16.17;;;4.17;;
16685;SDS011;8456;51.136;4.210;2022-09-09T05:28:37;13.63;;;3.57;;
16685;SDS011;8456;51.136;4.210;2022-09-09T05:31:04;14.97;;;3.43;;
16685;SDS011;8456;51.136;4.210;2022-09-09T05:33:34;9.20;;;2.93;;
16685;SDS011;8456;51.136;4.210;2022-09-09T05:36:05;16.70;;;3.57;;
16685;SDS011;8456;51.136;4.210;2022-09-09T05:38:33;9.73;;;2.93;;
16685;SDS011;8456;51.136;4.210;2022-09-09T05:41:00;11.80;;;3.10;;
16685;SDS011;8456;51.136;4.210;2022-09-09T05:43:28;13.83;;;3.17;;
16685;SDS011;8456;51.136;4.210;2022-09-09T05:45:58;11.93;;;3.67;;
16685;SDS011;8456;51.136;4.210;2022-09-09T05:48:30;19.67;;;3.27;;
16685;SDS011;8456;51.136;4.210;2022-09-09T05:50:58;8.40;;;2.47;;
16685;SDS011;8456;51.136;4.210;2022-09-09T05:53:25;14.93;;;3.37;;
16685;SDS011;8456;51.136;4.210;2022-09-09T05:55:59;12.63;;;3.27;;
16685;SDS011;8456;51.136;4.210;2022-09-09T05:58:31;15.40;;;3.10;;
16685;SDS011;8456;51.136;4.210;2022-09-09T06:01:02;9.53;;;2.80;;
16685;SDS011;8456;51.136;4.210;2022-09-09T06:03:36;15.13;;;3.60;;
16685;SDS011;8456;51.136;4.210;2022-09-09T06:06:04;12.87;;;3.57;;
16685;SDS011;8456;51.136;4.210;2022-09-09T06:08:32;11.93;;;2.90;;
16685;SDS011;8456;51.136;4.210;2022-09-09T06:11:06;15.93;;;3.70;;
16685;SDS011;8456;51.136;4.210;2022-09-09T06:13:37;17.17;;;3.37;;
16685;SDS011;8456;51.136;4.210;2022-09-09T06:16:05;8.60;;;2.40;;
16685;SDS011;8456;51.136;4.210;2022-09-09T06:18:34;13.80;;;3.43;;
16685;SDS011;8456;51.136;4.210;2022-09-09T06:21:01;17.80;;;3.13;;
16685;SDS011;8456;51.136;4.210;2022-09-09T06:23:30;10.60;;;2.80;;
16685;SDS011;8456;51.136;4.210;2022-09-09T06:26:07;11.63;;;3.20;;
16685;SDS011;8456;51.136;4.210;2022-09-09T06:28:38;14.50;;;2.93;;
16685;SDS011;8456;51.136;4.210;2022-09-09T06:31:08;9.10;;;2.60;;
16685;SDS011;8456;51.136;4.210;2022-09-09T06:33:37;11.57;;;2.73;;
16685;SDS011;8456;51.136;4.210;2022-09-09T06:36:11;14.37;;;3.13;;
16685;SDS011;8456;51.136;4.210;2022-09-09T06:38:43;10.03;;;3.10;;
16685;SDS011;8456;51.136;4.210;2022-09-09T06:41:12;18.67;;;2.87;;
16685;SDS011;8456;51.136;4.210;2022-09-09T06:43:40;14.07;;;2.93;;
16685;SDS011;8456;51.136;4.210;2022-09-09T06:46:08;15.63;;;3.00;;
16685;SDS011;8456;51.136;4.210;2022-09-09T06:48:36;13.03;;;3.10;;
16685;SDS011;8456;51.136;4.210;2022-09-09T06:51:04;13.53;;;2.70;;
16685;SDS011;8456;51.136;4.210;2022-09-09T06:53:42;8.30;;;2.73;;
16685;SDS011;8456;51.136;4.210;2022-09-09T06:58:37;12.93;;;3.23;;
16685;SDS011;8456;51.136;4.210;2022-09-09T07:01:12;14.70;;;3.17;;
16685;SDS011;8456;51.136;4.210;2022-09-09T07:03:39;10.33;;;2.40;;
16685;SDS011;8456;51.136;4.210;2022-09-09T07:06:06;15.77;;;2.90;;
16685;SDS011;8456;51.136;4.210;2022-09-09T07:08:34;11.23;;;2.80;;
16685;SDS011;8456;51.136;4.210;2022-09-09T07:11:01;15.30;;;3.03;;
16685;SDS011;8456;51.136;4.210;2022-09-09T07:13:35;15.53;;;3.50;;
16685;SDS011;8456;51.136;4.210;2022-09-09T07:16:09;10.37;;;2.87;;
16685;SDS011;8456;51.136;4.210;2022-09-09T07:18:36;14.47;;;2.97;;
16685;SDS011;8456;51.136;4.210;2022-09-09T07:21:02;17.27;;;3.27;;
16685;SDS011;8456;51.136;4.210;2022-09-09T07:23:29;12.40;;;2.70;;
16685;SDS011;8456;51.136;4.210;2022-09-09T07:25:59;10.23;;;2.77;;
16685;SDS011;8456;51.136;4.210;2022-09-09T07:28:25;14.70;;;3.27;;
16685;SDS011;8456;51.136;4.210;2022-09-09T07:30:53;10.47;;;2.43;;
16685;SDS011;8456;51.136;4.210;2022-09-09T07:33:25;11.37;;;2.63;;
16685;SDS011;8456;51.136;4.210;2022-09-09T07:35:51;10.27;;;2.50;;
16685;SDS011;8456;51.136;4.210;2022-09-09T07:38:21;12.90;;;2.40;;
16685;SDS011;8456;51.136;4.210;2022-09-09T07:40:48;19.00;;;3.10;;
16685;SDS011;8456;51.136;4.210;2022-09-09T07:43:14;14.30;;;2.60;;
16685;SDS011;8456;51.136;4.210;2022-09-09T07:45:41;10.23;;;2.87;;
16685;SDS011;8456;51.136;4.210;2022-09-09T07:48:08;11.70;;;2.77;;
16685;SDS011;8456;51.136;4.210;2022-09-09T07:50:34;10.77;;;2.50;;
16685;SDS011;8456;51.136;4.210;2022-09-09T07:53:00;10.07;;;2.60;;
16685;SDS011;8456;51.136;4.210;2022-09-09T07:55:28;11.13;;;2.47;;
16685;SDS011;8456;51.136;4.210;2022-09-09T07:57:55;9.33;;;2.43;;
16685;SDS011;8456;51.136;4.210;2022-09-09T08:00:22;8.80;;;2.20;;
16685;SDS011;8456;51.136;4.210;2022-09-09T08:02:52;10.37;;;2.33;;
16685;SDS011;8456;51.136;4.210;2022-09-09T08:05:19;11.03;;;2.40;;
16685;SDS011;8456;51.136;4.210;2022-09-09T08:07:47;10.13;;;2.20;;
16685;SDS011;8456;51.136;4.210;2022-09-09T08:10:14;12.77;;;2.37;;
16685;SDS011;8456;51.136;4.210;2022-09-09T08:12:42;12.83;;;2.93;;
16685;SDS011;8456;51.136;4.210;2022-09-09T08:15:08;10.53;;;2.90;;
16685;SDS011;8456;51.136;4.210;2022-09-09T08:17:34;14.07;;;3.10;;
16685;SDS011;8456;51.136;4.210;2022-09-09T08:20:04;5.00;;;1.90;;
16685;SDS011;8456;51.136;4.210;2022-09-09T08:22:30;9.97;;;2.73;;
16685;SDS011;8456;51.136;4.210;2022-09-09T08:24:56;9.33;;;2.47;;
16685;SDS011;8456;51.136;4.210;2022-09-09T08:27:22;9.60;;;2.53;;
16685;SDS011;8456;51.136;4.210;2022-09-09T08:29:49;18.30;;;2.60;;
16685;SDS011;8456;51.136;4.210;2022-09-09T08:32:16;7.87;;;2.17;;
16685;SDS011;8456;51.136;4.210;2022-09-09T08:34:43;5.50;;;1.87;;
16685;SDS011;8456;51.136;4.210;2022-09-09T08:37:14;13.93;;;3.00;;
16685;SDS011;8456;51.136;4.210;2022-09-09T08:39:42;8.70;;;2.23;;
16685;SDS011;8456;51.136;4.210;2022-09-09T08:50:38;10.00;;;2.33;;
16685;SDS011;8456;51.136;4.210;2022-09-09T08:55:53;9.73;;;2.13;;
16685;SDS011;8456;51.136;4.210;2022-09-09T08:58:45;9.17;;;2.23;;
16685;SDS011;8456;51.136;4.210;2022-09-09T09:09:46;11.03;;;2.17;;
16685;SDS011;8456;51.136;4.210;2022-09-09T09:12:37;10.60;;;3.03;;
16685;SDS011;8456;51.136;4.210;2022-09-09T09:15:14;10.13;;;2.43;;
16685;SDS011;8456;51.136;4.210;2022-09-09T09:17:53;8.50;;;2.40;;
16685;SDS011;8456;51.136;4.210;2022-09-09T09:20:25;9.70;;;2.27;;
16685;SDS011;8456;51.136;4.210;2022-09-09T09:23:10;6.47;;;2.07;;
16685;SDS011;8456;51.136;4.210;2022-09-09T09:25:44;9.87;;;2.20;;
16685;SDS011;8456;51.136;4.210;2022-09-09T09:28:21;8.23;;;2.47;;
16685;SDS011;8456;51.136;4.210;2022-09-09T09:30:55;8.37;;;2.33;;
16685;SDS011;8456;51.136;4.210;2022-09-09T09:35:56;10.10;;;2.13;;
16685;SDS011;8456;51.136;4.210;2022-09-09T09:38:26;7.50;;;2.60;;
16685;SDS011;8456;51.136;4.210;2022-09-09T09:40:57;9.53;;;2.03;;
16685;SDS011;8456;51.136;4.210;2022-09-09T09:43:28;9.30;;;2.33;;
16685;SDS011;8456;51.136;4.210;2022-09-09T09:45:58;11.07;;;2.90;;
16685;SDS011;8456;51.136;4.210;2022-09-09T09:48:26;8.37;;;2.10;;
16685;SDS011;8456;51.136;4.210;2022-09-09T09:53:29;8.70;;;2.13;;
16685;SDS011;8456;51.136;4.210;2022-09-09T09:56:05;7.00;;;2.40;;
16685;SDS011;8456;51.136;4.210;2022-09-09T10:06:35;6.23;;;1.93;;
16685;SDS011;8456;51.136;4.210;2022-09-09T10:09:22;8.63;;;2.67;;
16685;SDS011;8456;51.136;4.210;2022-09-09T10:22:34;6.20;;;2.00;;
16685;SDS011;8456;51.136;4.210;2022-09-09T10:30:26;7.30;;;2.00;;
16685;SDS011;8456;51.136;4.210;2022-09-09T10:33:16;13.60;;;3.37;;
16685;SDS011;8456;51.136;4.210;2022-09-09T10:35:52;4.57;;;1.70;;
16685;SDS011;8456;51.136;4.210;2022-09-09T10:38:44;6.20;;;2.10;;
16685;SDS011;8456;51.136;4.210;2022-09-09T10:49:25;7.03;;;1.63;;
16685;SDS011;8456;51.136;4.210;2022-09-09T10:54:42;24.03;;;4.00;;
16685;SDS011;8456;51.136;4.210;2022-09-09T10:57:22;9.17;;;2.30;;
16685;SDS011;8456;51.136;4.210;2022-09-09T11:02:51;26.23;;;2.97;;
16685;SDS011;8456;51.136;4.210;2022-09-09T11:05:25;4.63;;;1.87;;
16685;SDS011;8456;51.136;4.210;2022-09-09T11:07:59;7.67;;;1.70;;
16685;SDS011;8456;51.136;4.210;2022-09-09T11:14:17;4.07;;;1.73;;
16685;SDS011;8456;51.136;4.210;2022-09-09T11:16:24;7.27;;;1.40;;
16685;SDS011;8456;51.136;4.210;2022-09-09T11:19:13;4.80;;;1.50;;
16685;SDS011;8456;51.136;4.210;2022-09-09T11:21:59;6.13;;;1.33;;
16685;SDS011;8456;51.136;4.210;2022-09-09T11:27:48;4.57;;;1.47;;
16685;SDS011;8456;51.136;4.210;2022-09-09T11:38:50;5.07;;;1.50;;
16685;SDS011;8456;51.136;4.210;2022-09-09T11:41:19;7.47;;;1.63;;
16685;SDS011;8456;51.136;4.210;2022-09-09T11:43:49;3.90;;;1.20;;
16685;SDS011;8456;51.136;4.210;2022-09-09T11:46:20;6.07;;;1.53;;
16685;SDS011;8456;51.136;4.210;2022-09-09T11:49:02;2.67;;;1.00;;
16685;SDS011;8456;51.136;4.210;2022-09-09T11:51:30;4.27;;;1.50;;
16685;SDS011;8456;51.136;4.210;2022-09-09T11:53:58;6.23;;;1.30;;
16685;SDS011;8456;51.136;4.210;2022-09-09T11:56:27;3.83;;;1.40;;
16685;SDS011;8456;51.136;4.210;2022-09-09T11:59:02;7.03;;;1.23;;
16685;SDS011;8456;51.136;4.210;2022-09-09T12:06:46;4.93;;;1.33;;
16685;SDS011;8456;51.136;4.210;2022-09-09T12:09:24;4.40;;;1.57;;
16685;SDS011;8456;51.136;4.210;2022-09-09T12:12:05;2.80;;;0.93;;
16685;SDS011;8456;51.136;4.210;2022-09-09T12:14:43;3.80;;;1.10;;
16685;SDS011;8456;51.136;4.210;2022-09-09T12:17:22;3.87;;;1.33;;
16685;SDS011;8456;51.136;4.210;2022-09-09T12:34:04;4.13;;;1.40;;
16685;SDS011;8456;51.136;4.210;2022-09-09T12:36:37;3.03;;;1.43;;
16685;SDS011;8456;51.136;4.210;2022-09-09T12:39:14;4.33;;;1.40;;
16685;SDS011;8456;51.136;4.210;2022-09-09T12:41:53;3.77;;;1.20;;
16685;SDS011;8456;51.136;4.210;2022-09-09T12:44:25;3.80;;;1.10;;
16685;SDS011;8456;51.136;4.210;2022-09-09T12:46:54;4.47;;;1.13;;
16685;SDS011;8456;51.136;4.210;2022-09-09T12:49:37;7.07;;;1.20;;
16685;SDS011;8456;51.136;4.210;2022-09-09T12:52:07;3.73;;;0.87;;
16685;SDS011;8456;51.136;4.210;2022-09-09T12:54:55;3.57;;;1.33;;
16685;SDS011;8456;51.136;4.210;2022-09-09T12:57:22;5.33;;;1.40;;
16685;SDS011;8456;51.136;4.210;2022-09-09T12:59:52;4.67;;;1.33;;
16685;SDS011;8456;51.136;4.210;2022-09-09T13:02:30;3.13;;;1.20;;
16685;SDS011;8456;51.136;4.210;2022-09-09T13:05:05;4.70;;;1.60;;
16685;SDS011;8456;51.136;4.210;2022-09-09T13:07:38;5.97;;;1.37;;
16685;SDS011;8456;51.136;4.210;2022-09-09T13:10:04;7.93;;;1.30;;
16685;SDS011;8456;51.136;4.210;2022-09-09T13:12:31;6.60;;;1.40;;
16685;SDS011;8456;51.136;4.210;2022-09-09T13:14:57;3.17;;;1.20;;
16685;SDS011;8456;51.136;4.210;2022-09-09T13:17:23;3.10;;;1.17;;
16685;SDS011;8456;51.136;4.210;2022-09-09T13:19:51;2.90;;;1.10;;
16685;SDS011;8456;51.136;4.210;2022-09-09T13:22:31;6.10;;;1.37;;
16685;SDS011;8456;51.136;4.210;2022-09-09T13:27:39;3.30;;;1.27;;
16685;SDS011;8456;51.136;4.210;2022-09-09T13:35:48;4.53;;;1.10;;
16685;SDS011;8456;51.136;4.210;2022-09-09T13:38:20;2.90;;;1.40;;
16685;SDS011;8456;51.136;4.210;2022-09-09T13:41:20;6.27;;;1.60;;
16685;SDS011;8456;51.136;4.210;2022-09-09T13:43:46;3.53;;;1.30;;
16685;SDS011;8456;51.136;4.210;2022-09-09T13:51:36;2.97;;;1.10;;
16685;SDS011;8456;51.136;4.210;2022-09-09T13:54:06;3.83;;;1.30;;
16685;SDS011;8456;51.136;4.210;2022-09-09T13:56:34;5.53;;;1.40;;
16685;SDS011;8456;51.136;4.210;2022-09-09T13:59:02;5.00;;;1.30;;
16685;SDS011;8456;51.136;4.210;2022-09-09T14:01:29;4.40;;;1.20;;
16685;SDS011;8456;51.136;4.210;2022-09-09T14:03:56;5.43;;;1.17;;
16685;SDS011;8456;51.136;4.210;2022-09-09T14:06:22;3.07;;;1.23;;
16685;SDS011;8456;51.136;4.210;2022-09-09T14:08:49;3.30;;;1.20;;
16685;SDS011;8456;51.136;4.210;2022-09-09T14:11:16;2.27;;;0.90;;
16685;SDS011;8456;51.136;4.210;2022-09-09T14:13:42;5.00;;;1.40;;
16685;SDS011;8456;51.136;4.210;2022-09-09T14:16:07;4.53;;;1.13;;
16685;SDS011;8456;51.136;4.210;2022-09-09T14:18:34;4.17;;;1.07;;
16685;SDS011;8456;51.136;4.210;2022-09-09T14:21:00;4.63;;;1.10;;
16685;SDS011;8456;51.136;4.210;2022-09-09T14:23:27;3.90;;;1.20;;
16685;SDS011;8456;51.136;4.210;2022-09-09T14:25:54;5.70;;;1.27;;
16685;SDS011;8456;51.136;4.210;2022-09-09T14:28:21;2.60;;;1.13;;
16685;SDS011;8456;51.136;4.210;2022-09-09T14:30:47;3.03;;;1.43;;
16685;SDS011;8456;51.136;4.210;2022-09-09T14:33:13;4.10;;;1.17;;
16685;SDS011;8456;51.136;4.210;2022-09-09T14:35:40;4.13;;;1.47;;
16685;SDS011;8456;51.136;4.210;2022-09-09T14:38:06;2.97;;;1.10;;
16685;SDS011;8456;51.136;4.210;2022-09-09T14:40:36;3.53;;;1.23;;
16685;SDS011;8456;51.136;4.210;2022-09-09T14:43:04;3.40;;;1.20;;
16685;SDS011;8456;51.136;4.210;2022-09-09T14:45:30;2.67;;;0.80;;
16685;SDS011;8456;51.136;4.210;2022-09-09T14:47:57;4.30;;;1.07;;
16685;SDS011;8456;51.136;4.210;2022-09-09T14:50:23;2.83;;;1.40;;
16685;SDS011;8456;51.136;4.210;2022-09-09T14:52:49;4.30;;;1.40;;
16685;SDS011;8456;51.136;4.210;2022-09-09T14:55:15;2.40;;;1.03;;
16685;SDS011;8456;51.136;4.210;2022-09-09T14:57:41;2.47;;;0.90;;
16685;SDS011;8456;51.136;4.210;2022-09-09T15:00:08;3.87;;;1.27;;
16685;SDS011;8456;51.136;4.210;2022-09-09T15:02:35;2.40;;;0.80;;
16685;SDS011;8456;51.136;4.210;2022-09-09T15:05:01;2.30;;;1.10;;
16685;SDS011;8456;51.136;4.210;2022-09-09T15:07:28;1.90;;;0.97;;
16685;SDS011;8456;51.136;4.210;2022-09-09T15:09:54;2.80;;;0.90;;
16685;SDS011;8456;51.136;4.210;2022-09-09T15:12:20;3.87;;;1.33;;
16685;SDS011;8456;51.136;4.210;2022-09-09T15:14:46;3.83;;;1.17;;
16685;SDS011;8456;51.136;4.210;2022-09-09T15:17:13;4.27;;;1.10;;
16685;SDS011;8456;51.136;4.210;2022-09-09T15:19:39;2.37;;;1.10;;
16685;SDS011;8456;51.136;4.210;2022-09-09T15:22:05;3.53;;;1.00;;
16685;SDS011;8456;51.136;4.210;2022-09-09T15:24:31;3.03;;;1.00;;
16685;SDS011;8456;51.136;4.210;2022-09-09T15:26:58;4.20;;;1.10;;
16685;SDS011;8456;51.136;4.210;2022-09-09T15:29:24;2.90;;;1.10;;
16685;SDS011;8456;51.136;4.210;2022-09-09T15:31:50;3.87;;;1.13;;
16685;SDS011;8456;51.136;4.210;2022-09-09T15:34:18;3.90;;;1.17;;
16685;SDS011;8456;51.136;4.210;2022-09-09T15:36:44;3.10;;;0.90;;
16685;SDS011;8456;51.136;4.210;2022-09-09T15:39:14;3.60;;;1.30;;
16685;SDS011;8456;51.136;4.210;2022-09-09T15:41:42;3.87;;;1.37;;
16685;SDS011;8456;51.136;4.210;2022-09-09T15:44:09;6.87;;;1.40;;
16685;SDS011;8456;51.136;4.210;2022-09-09T15:51:28;5.00;;;1.80;;
16685;SDS011;8456;51.136;4.210;2022-09-09T15:53:56;3.03;;;1.50;;
16685;SDS011;8456;51.136;4.210;2022-09-09T15:56:23;8.43;;;2.73;;
16685;SDS011;8456;51.136;4.210;2022-09-09T15:58:50;4.90;;;1.70;;
16685;SDS011;8456;51.136;4.210;2022-09-09T16:01:17;6.93;;;1.90;;
16685;SDS011;8456;51.136;4.210;2022-09-09T16:03:44;3.63;;;1.70;;
16685;SDS011;8456;51.136;4.210;2022-09-09T16:06:17;6.20;;;1.70;;
16685;SDS011;8456;51.136;4.210;2022-09-09T16:08:44;5.17;;;1.50;;
16685;SDS011;8456;51.136;4.210;2022-09-09T16:11:15;3.43;;;1.63;;
16685;SDS011;8456;51.136;4.210;2022-09-09T16:13:45;2.83;;;1.43;;
16685;SDS011;8456;51.136;4.210;2022-09-09T16:16:11;6.13;;;1.90;;
16685;SDS011;8456;51.136;4.210;2022-09-09T16:18:41;5.40;;;1.50;;
16685;SDS011;8456;51.136;4.210;2022-09-09T16:21:08;7.07;;;2.20;;
16685;SDS011;8456;51.136;4.210;2022-09-09T16:23:43;5.03;;;2.00;;
16685;SDS011;8456;51.136;4.210;2022-09-09T16:26:14;5.77;;;2.40;;
16685;SDS011;8456;51.136;4.210;2022-09-09T16:28:41;10.47;;;2.57;;
16685;SDS011;8456;51.136;4.210;2022-09-09T16:31:07;6.97;;;2.70;;
16685;SDS011;8456;51.136;4.210;2022-09-09T16:33:35;8.13;;;3.03;;
16685;SDS011;8456;51.136;4.210;2022-09-09T16:36:06;8.60;;;2.70;;
16685;SDS011;8456;51.136;4.210;2022-09-09T16:38:32;7.63;;;2.63;;
16685;SDS011;8456;51.136;4.210;2022-09-09T16:41:00;8.47;;;2.57;;
16685;SDS011;8456;51.136;4.210;2022-09-09T16:43:27;14.77;;;3.70;;
16685;SDS011;8456;51.136;4.210;2022-09-09T16:45:53;7.50;;;2.23;;
16685;SDS011;8456;51.136;4.210;2022-09-09T16:48:19;9.80;;;3.00;;
16685;SDS011;8456;51.136;4.210;2022-09-09T16:50:45;9.43;;;3.13;;
16685;SDS011;8456;51.136;4.210;2022-09-09T16:53:11;3.77;;;2.13;;
16685;SDS011;8456;51.136;4.210;2022-09-09T16:55:40;4.33;;;2.73;;
16685;SDS011;8456;51.136;4.210;2022-09-09T16:58:07;6.40;;;2.73;;
16685;SDS011;8456;51.136;4.210;2022-09-09T17:00:35;7.77;;;2.40;;
16685;SDS011;8456;51.136;4.210;2022-09-09T17:03:01;4.83;;;2.90;;
16685;SDS011;8456;51.136;4.210;2022-09-09T17:05:27;6.73;;;2.80;;
16685;SDS011;8456;51.136;4.210;2022-09-09T17:07:54;9.23;;;2.77;;
16685;SDS011;8456;51.136;4.210;2022-09-09T17:10:24;4.27;;;2.33;;
16685;SDS011;8456;51.136;4.210;2022-09-09T17:12:50;4.40;;;2.63;;
16685;SDS011;8456;51.136;4.210;2022-09-09T17:15:16;4.87;;;2.50;;
16685;SDS011;8456;51.136;4.210;2022-09-09T17:17:43;6.87;;;3.20;;
16685;SDS011;8456;51.136;4.210;2022-09-09T17:20:10;5.77;;;2.97;;
16685;SDS011;8456;51.136;4.210;2022-09-09T17:22:36;9.00;;;2.83;;
16685;SDS011;8456;51.136;4.210;2022-09-09T17:25:02;7.40;;;3.37;;
16685;SDS011;8456;51.136;4.210;2022-09-09T17:27:29;3.17;;;2.70;;
16685;SDS011;8456;51.136;4.210;2022-09-09T17:29:56;7.67;;;3.30;;
16685;SDS011;8456;51.136;4.210;2022-09-09T17:32:23;12.67;;;3.10;;
16685;SDS011;8456;51.136;4.210;2022-09-09T17:34:49;7.03;;;3.63;;
16685;SDS011;8456;51.136;4.210;2022-09-09T17:37:15;11.37;;;3.40;;
16685;SDS011;8456;51.136;4.210;2022-09-09T17:39:41;9.20;;;3.23;;